Terminal Aerodrome Forecast
Issued by NWS Sterling, VA

Current Version | Previous Version | Text Only | Print | Product List | Glossary On
Versions: 1 2 3 4 5 6 7 8 9 10 11 12 13 14 15 16 17
104
FTUS41 KLWX 131203 AAA
TAFMRB
TAF AMD
KMRB 131203Z 1312/1412 31017G41KT 6SM -SHSN SCT030 BKN045
      TEMPO 1312/1313 2SM -SHSN
     FM131400 31019G39KT P6SM SCT030 BKN045
     FM132100 30019G34KT P6SM SCT050
     FM132300 31016G26KT P6SM SCT050
     FM140400 31013KT P6SM SCT050
     FM140600 31012G19KT P6SM FEW250=

USA.gov is the U.S. government's official web portal to all federal, state and local government web resources and services.